Pagina principale
METAR-TAF:

METAR-TAF

Aeroporti :

Decimomannu, Italia

Aeroporto di Decimomannu

latitudine: 39-21N, longitudine: 008-58E, altezza: 29 m

Osservazione

Il bollettino è stato emesso 1 ora e 1 minuti fa, alle 23:55 UTC
Vento 4 kt da nord-ovest
Temperature 14°C
Umidità 88%
Pressione 1017 hPa
Visibilità 10 km o più
Poco nuvoloso ad un'altezza di 2500 ft

METAR: LIED 162355Z 31004KT 9999 FEW025 14/12 Q1017 RMK FEW VIS MIN 9999 WIND THR35 28007KT WIND THR17 /////KT BLU

Ora: 01:56 (00:56 UTC)

Previsione

Il bollettino è stato emesso 4 ore e 56 minuti fa, alle 20:00 UTC
Previsione valida dal 16 alle 21 UTC al 17 alle 06 UTC
Vento 15 kt da ovest
Visibilità 10 km o più
Poco nuvoloso ad un'altezza di 2000 ft

TAF: LIED 162000Z 1621/1706 26015KT 9999 FEW020

Osservazioni e previsioni meteorologiche di più di 4000 aeroporti (messaggi METAR e TAF).

Le stazioni disponibili sono rappresentate dai dischi gialli e rossi sulla carta.

Puntare il mouse per vedere il nome della stazione.

Clicca sopra per visualizzare le osservazioni e previsioni meteorologiche.

Per cambiare la mappa : fare clic sui pulsanti verdi con una croce nera per ingrandire, il pulsante verde con un trattino per diminuire, o sulla freccia verde per le mappe adiacenti.


METAR-TAF: